Time,TemperatureF,DewpointF,PressureIn,WindDirection,WindDirectionDegrees,WindSpeedMPH,WindSpeedGustMPH,Humidity,HourlyPrecipIn,Conditions,Clouds,dailyrainin,SoftwareType,DateUTC
2013-03-06 00:00:00,33.1,19.4,27.79,WNW,293,2.9,6.9,56,0.00,,,0.00,WSDL version 423,2013-03-06 05:00:00,
2013-03-06 00:05:00,33.1,19.2,27.79,NNW,333,3.0,4.0,56,0.00,,,0.00,WSDL version 423,2013-03-06 05:05:00,
2013-03-06 00:10:00,33.1,19.1,27.79,WNW,293,4.5,7.2,56,0.00,,,0.00,WSDL version 423,2013-03-06 05:10:00,
2013-03-06 00:15:00,33.1,19.0,27.79,NW,310,4.7,8.7,54,0.00,,,0.00,WSDL version 423,2013-03-06 05:15:00,
2013-03-06 00:20:00,33.0,18.1,27.82,NW,321,6.0,8.7,52,0.00,,,0.00,WSDL version 423,2013-03-06 05:20:00,
2013-03-06 00:25:00,33.1,17.4,27.82,NW,318,5.2,8.1,52,0.00,,,0.00,WSDL version 423,2013-03-06 05:25:00,
2013-03-06 00:30:00,33.1,17.0,27.82,WSW,251,3.5,10.5,51,0.00,,,0.00,WSDL version 423,2013-03-06 05:30:00,
2013-03-06 00:35:00,33.2,17.3,27.79,NW,315,5.9,10.5,51,0.00,,,0.00,WSDL version 423,2013-03-06 05:35:00,
2013-03-06 00:40:00,33.3,17.1,27.79,NW,323,3.5,8.5,51,0.00,,,0.00,WSDL version 423,2013-03-06 05:40:00,
2013-03-06 00:45:00,33.3,17.1,27.79,NW,312,2.7,6.5,51,0.00,,,0.00,WSDL version 423,2013-03-06 05:45:00,
2013-03-06 00:50:00,33.3,17.2,27.79,WSW,239,4.6,12.8,52,0.00,,,0.00,WSDL version 423,2013-03-06 05:50:00,
2013-03-06 00:55:00,33.2,16.9,27.79,NW,318,4.0,12.8,51,0.00,,,0.00,WSDL version 423,2013-03-06 05:55:00,
2013-03-06 01:00:00,33.1,16.9,27.79,NW,313,4.0,14.8,51,0.00,,,0.00,WSDL version 423,2013-03-06 06:00:00,
2013-03-06 01:05:00,33.1,17.1,27.79,WSW,256,5.1,14.8,52,0.00,,,0.00,WSDL version 423,2013-03-06 06:05:00,
2013-03-06 01:10:00,32.8,17.5,27.79,West,280,3.7,10.5,54,0.00,,,0.00,WSDL version 423,2013-03-06 06:10:00,
2013-03-06 01:15:00,32.5,17.7,27.79,West,280,4.0,15.2,54,0.00,,,0.00,WSDL version 423,2013-03-06 06:15:00,
2013-03-06 01:20:00,32.4,17.4,27.79,North,6,5.2,15.2,52,0.00,,,0.00,WSDL version 423,2013-03-06 06:20:00,
2013-03-06 01:25:00,32.2,17.2,27.79,NW,308,4.3,10.5,53,0.00,,,0.00,WSDL version 423,2013-03-06 06:25:00,
2013-03-06 01:30:00,32.2,17.0,27.79,WNW,302,3.0,7.2,53,0.00,,,0.00,WSDL version 423,2013-03-06 06:30:00,
2013-03-06 01:35:00,32.2,17.6,27.79,WNW,283,2.9,6.5,54,0.00,,,0.00,WSDL version 423,2013-03-06 06:35:00,
2013-03-06 01:40:00,32.1,17.8,27.79,West,273,4.8,7.2,52,0.00,,,0.00,WSDL version 423,2013-03-06 06:40:00,
2013-03-06 01:45:00,32.2,17.0,27.79,NNW,329,4.7,7.4,53,0.00,,,0.00,WSDL version 423,2013-03-06 06:45:00,
2013-03-06 01:50:00,32.2,16.5,27.79,NNW,330,3.9,8.1,51,0.00,,,0.00,WSDL version 423,2013-03-06 06:50:00,
2013-03-06 01:55:00,32.2,16.3,27.79,NW,307,5.4,8.1,51,0.00,,,0.00,WSDL version 423,2013-03-06 06:55:00,
2013-03-06 02:00:00,32.3,16.5,27.79,WNW,290,3.7,10.7,52,0.00,,,0.00,WSDL version 423,2013-03-06 07:00:00,
2013-03-06 02:05:00,32.0,18.5,27.79,WNW,293,4.8,10.7,57,0.00,,,0.00,WSDL version 423,2013-03-06 07:05:00,
2013-03-06 02:10:00,31.1,21.7,27.79,West,260,4.2,9.8,68,0.00,,,0.00,WSDL version 423,2013-03-06 07:10:00,
2013-03-06 02:15:00,30.2,20.2,27.79,WNW,287,6.8,12.3,59,0.00,,,0.00,WSDL version 423,2013-03-06 07:15:00,
2013-03-06 02:20:00,29.9,18.8,27.79,NW,307,4.4,12.3,58,0.00,,,0.00,WSDL version 423,2013-03-06 07:20:00,
2013-03-06 02:25:00,29.7,18.5,27.79,WNW,298,5.1,7.8,59,0.00,,,0.00,WSDL version 423,2013-03-06 07:25:00,
2013-03-06 02:30:00,29.7,18.3,27.79,NNW,334,4.5,10.1,58,0.00,,,0.00,WSDL version 423,2013-03-06 07:30:00,
2013-03-06 02:35:00,29.6,18.6,27.79,NW,313,4.1,10.1,60,0.00,,,0.00,WSDL version 423,2013-03-06 07:35:00,
2013-03-06 02:40:00,29.5,18.4,27.79,West,281,6.3,6.5,59,0.00,,,0.00,WSDL version 423,2013-03-06 07:40:00,
2013-03-06 02:45:00,29.4,17.6,27.79,WNW,293,7.0,13.2,56,0.00,,,0.00,WSDL version 423,2013-03-06 07:45:00,
2013-03-06 02:50:00,29.3,16.8,27.82,NW,325,4.5,13.2,55,0.00,,,0.00,WSDL version 423,2013-03-06 07:50:00,
2013-03-06 02:55:00,29.2,15.8,27.82,NNW,332,6.3,11.0,52,0.00,,,0.00,WSDL version 423,2013-03-06 07:55:00,
2013-03-06 03:00:00,29.1,14.8,27.82,NW,313,6.4,13.0,50,0.00,,,0.00,WSDL version 423,2013-03-06 08:00:00,
2013-03-06 03:05:00,29.1,15.0,27.79,WNW,298,4.3,13.0,51,0.00,,,0.00,WSDL version 423,2013-03-06 08:05:00,
2013-03-06 03:10:00,29.0,15.1,27.79,NW,308,4.1,7.4,52,0.00,,,0.00,WSDL version 423,2013-03-06 08:10:00,
2013-03-06 03:15:00,28.9,14.7,27.79,West,278,4.7,7.2,50,0.00,,,0.00,WSDL version 423,2013-03-06 08:15:00,
2013-03-06 03:20:00,28.8,14.2,27.79,WNW,295,4.3,7.4,50,0.00,,,0.00,WSDL version 423,2013-03-06 08:20:00,
2013-03-06 03:25:00,28.7,13.9,27.79,North,349,4.5,8.5,49,0.00,,,0.00,WSDL version 423,2013-03-06 08:25:00,
2013-03-06 03:30:00,28.6,13.5,27.79,West,270,5.6,9.8,49,0.00,,,0.00,WSDL version 423,2013-03-06 08:30:00,
2013-03-06 03:35:00,28.6,13.0,27.82,NW,308,6.4,11.2,47,0.00,,,0.00,WSDL version 423,2013-03-06 08:35:00,
2013-03-06 03:40:00,28.6,12.8,27.82,NW,318,4.5,12.5,48,0.00,,,0.00,WSDL version 423,2013-03-06 08:40:00,
2013-03-06 03:45:00,28.4,13.5,27.82,NW,318,4.1,12.5,49,0.00,,,0.00,WSDL version 423,2013-03-06 08:45:00,
2013-03-06 03:50:00,28.4,13.4,27.79,WNW,298,3.7,6.3,49,0.00,,,0.00,WSDL version 423,2013-03-06 08:50:00,
2013-03-06 03:55:00,28.3,13.2,27.79,WNW,288,5.3,7.8,49,0.00,,,0.00,WSDL version 423,2013-03-06 08:55:00,
2013-03-06 04:00:00,28.2,13.3,27.79,NW,305,4.5,7.8,49,0.00,,,0.00,WSDL version 423,2013-03-06 09:00:00,
2013-03-06 04:05:00,28.2,13.4,27.82,NW,304,6.3,12.5,50,0.00,,,0.00,WSDL version 423,2013-03-06 09:05:00,
2013-03-06 04:10:00,28.0,14.2,27.82,NW,308,5.4,12.5,52,0.00,,,0.00,WSDL version 423,2013-03-06 09:10:00,
2013-03-06 04:15:00,27.8,14.8,27.82,WNW,295,4.6,7.4,54,0.00,,,0.00,WSDL version 423,2013-03-06 09:15:00,
2013-03-06 04:20:00,27.6,15.5,27.82,NW,307,3.4,10.7,58,0.00,,,0.00,WSDL version 423,2013-03-06 09:20:00,
2013-03-06 04:25:00,27.4,15.9,27.82,NNW,329,5.9,12.3,58,0.00,,,0.00,WSDL version 423,2013-03-06 09:25:00,
2013-03-06 04:30:00,27.1,16.2,27.82,WNW,295,3.6,12.3,59,0.00,,,0.00,WSDL version 423,2013-03-06 09:30:00,
2013-03-06 04:35:00,27.1,16.1,27.82,NW,305,3.8,9.6,59,0.00,,,0.00,WSDL version 423,2013-03-06 09:35:00,
2013-03-06 04:40:00,27.2,15.8,27.82,NW,321,5.0,9.6,57,0.00,,,0.00,WSDL version 423,2013-03-06 09:40:00,
2013-03-06 04:45:00,27.3,15.3,27.82,NNW,338,5.1,9.8,56,0.00,,,0.00,WSDL version 423,2013-03-06 09:45:00,
2013-03-06 04:50:00,27.4,14.8,27.82,WNW,298,5.0,10.3,54,0.00,,,0.00,WSDL version 423,2013-03-06 09:50:00,
2013-03-06 04:55:00,27.5,14.9,27.82,WNW,284,5.4,10.3,55,0.00,,,0.00,WSDL version 423,2013-03-06 09:55:00,
2013-03-06 05:00:00,27.5,14.4,27.82,West,276,4.6,8.5,53,0.00,,,0.00,WSDL version 423,2013-03-06 10:00:00,
2013-03-06 05:05:00,27.5,14.4,27.85,NNW,348,5.6,14.3,54,0.00,,,0.00,WSDL version 423,2013-03-06 10:05:00,
2013-03-06 05:10:00,27.5,14.5,27.85,NNW,335,3.6,14.3,54,0.00,,,0.00,WSDL version 423,2013-03-06 10:10:00,
2013-03-06 05:15:00,27.5,14.5,27.85,WNW,296,4.2,12.1,54,0.00,,,0.00,WSDL version 423,2013-03-06 10:15:00,
2013-03-06 05:20:00,27.5,14.7,27.85,NNW,345,5.1,9.8,54,0.00,,,0.00,WSDL version 423,2013-03-06 10:20:00,
2013-03-06 05:25:00,27.5,14.8,27.85,ENE,68,3.8,7.4,55,0.00,,,0.00,WSDL version 423,2013-03-06 10:25:00,
2013-03-06 05:30:00,27.5,14.8,27.85,NW,320,4.5,10.3,55,0.00,,,0.00,WSDL version 423,2013-03-06 10:30:00,
2013-03-06 05:35:00,27.5,15.1,27.85,NW,323,5.0,10.3,55,0.00,,,0.00,WSDL version 423,2013-03-06 10:35:00,
2013-03-06 05:40:00,27.5,15.2,27.85,WNW,293,3.8,6.5,56,0.00,,,0.00,WSDL version 423,2013-03-06 10:40:00,
2013-03-06 05:45:00,27.5,15.4,27.85,NW,315,2.8,5.8,57,0.00,,,0.00,WSDL version 423,2013-03-06 10:45:00,
2013-03-06 05:50:00,27.5,15.8,27.85,WNW,293,3.2,8.1,58,0.00,,,0.00,WSDL version 423,2013-03-06 10:50:00,
2013-03-06 05:55:00,27.3,16.0,27.85,West,265,3.9,12.8,59,0.00,,,0.00,WSDL version 423,2013-03-06 10:55:00,
2013-03-06 06:00:00,27.1,16.3,27.85,West,281,3.7,12.8,61,0.00,,,0.00,WSDL version 423,2013-03-06 11:00:00,
2013-03-06 06:05:00,27.0,16.7,27.85,WNW,303,3.6,5.6,61,0.00,,,0.00,WSDL version 423,2013-03-06 11:05:00,
2013-03-06 06:10:00,27.0,16.6,27.85,NNW,328,4.4,7.2,61,0.00,,,0.00,WSDL version 423,2013-03-06 11:10:00,
2013-03-06 06:15:00,27.0,16.9,27.85,NW,323,4.2,7.2,63,0.00,,,0.00,WSDL version 423,2013-03-06 11:15:00,
2013-03-06 06:20:00,26.8,17.3,27.88,NW,323,2.9,6.5,65,0.00,,,0.00,WSDL version 423,2013-03-06 11:20:00,
2013-03-06 06:25:00,26.8,17.6,27.88,NW,323,3.8,7.8,65,0.00,,,0.00,WSDL version 423,2013-03-06 11:25:00,
2013-03-06 06:30:00,26.8,17.8,27.88,WNW,298,2.4,7.8,66,0.00,,,0.00,WSDL version 423,2013-03-06 11:30:00,
2013-03-06 06:35:00,26.8,18.3,27.88,NNE,20,2.3,6.3,68,0.00,,,0.00,WSDL version 423,2013-03-06 11:35:00,
2013-03-06 06:40:00,26.6,18.6,27.88,NNW,348,2.7,9.8,69,0.00,,,0.00,WSDL version 423,2013-03-06 11:40:00,
2013-03-06 06:45:00,26.6,18.9,27.88,North,357,3.6,9.8,69,0.00,,,0.00,WSDL version 423,2013-03-06 11:45:00,
2013-03-06 06:50:00,26.6,19.3,27.88,NNW,328,2.4,7.4,71,0.00,,,0.00,WSDL version 423,2013-03-06 11:50:00,
2013-03-06 06:55:00,26.6,19.4,27.88,WNW,295,3.0,7.4,71,0.00,,,0.00,WSDL version 423,2013-03-06 11:55:00,
2013-03-06 07:00:00,26.6,19.5,27.88,WNW,301,3.2,6.7,71,0.00,,,0.00,WSDL version 423,2013-03-06 12:00:00,
2013-03-06 07:05:00,26.6,19.5,27.88,WNW,293,3.6,5.4,71,0.00,,,0.00,WSDL version 423,2013-03-06 12:05:00,
2013-03-06 07:10:00,26.6,19.5,27.88,West,270,3.0,5.6,71,0.00,,,0.00,WSDL version 423,2013-03-06 12:10:00,
2013-03-06 07:15:00,26.6,19.6,27.88,WNW,300,2.8,5.6,73,0.00,,,0.00,WSDL version 423,2013-03-06 12:15:00,
2013-03-06 07:20:00,26.6,19.7,27.88,NW,321,2.7,4.7,72,0.00,,,0.00,WSDL version 423,2013-03-06 12:20:00,
2013-03-06 07:25:00,26.6,19.5,27.88,West,273,3.6,7.8,72,0.00,,,0.00,WSDL version 423,2013-03-06 12:25:00,
2013-03-06 07:30:00,26.7,19.4,27.88,NW,318,4.7,7.8,70,0.00,,,0.00,WSDL version 423,2013-03-06 12:30:00,
2013-03-06 07:35:00,26.8,19.6,27.88,WNW,301,3.8,6.5,72,0.00,,,0.00,WSDL version 423,2013-03-06 12:35:00,
2013-03-06 07:40:00,26.8,19.6,27.88,SE,133,3.5,9.6,71,0.00,,,0.00,WSDL version 423,2013-03-06 12:40:00,
2013-03-06 07:45:00,26.8,19.9,27.88,NNW,335,3.6,9.6,73,0.00,,,0.00,WSDL version 423,2013-03-06 12:45:00,
2013-03-06 07:50:00,26.6,20.2,27.88,WNW,287,4.1,6.5,74,0.00,,,0.00,WSDL version 423,2013-03-06 12:50:00,
2013-03-06 07:55:00,26.7,20.4,27.88,NW,321,3.9,6.3,74,0.00,,,0.00,WSDL version 423,2013-03-06 12:55:00,
2013-03-06 08:00:00,26.6,20.5,27.88,WNW,303,3.1,6.3,75,0.00,,,0.00,WSDL version 423,2013-03-06 13:00:00,
2013-03-06 08:05:00,26.6,20.9,27.91,NW,318,3.0,5.6,77,0.00,,,0.00,WSDL version 423,2013-03-06 13:05:00,
2013-03-06 08:10:00,26.6,21.3,27.91,WNW,283,3.8,5.6,78,0.00,,,0.00,WSDL version 423,2013-03-06 13:10:00,
2013-03-06 08:15:00,26.6,21.6,27.91,WNW,285,3.7,6.3,79,0.00,,,0.00,WSDL version 423,2013-03-06 13:15:00,
2013-03-06 08:20:00,26.8,21.9,27.88,NNW,334,3.4,6.3,80,0.00,,,0.00,WSDL version 423,2013-03-06 13:20:00,
2013-03-06 08:25:00,26.8,22.2,27.88,NW,315,4.4,7.4,80,0.00,,,0.00,WSDL version 423,2013-03-06 13:25:00,
2013-03-06 08:30:00,26.8,22.1,27.88,NNW,328,3.1,7.4,80,0.00,,,0.00,WSDL version 423,2013-03-06 13:30:00,
2013-03-06 08:35:00,26.8,22.0,27.91,West,275,2.7,5.6,80,0.00,,,0.00,WSDL version 423,2013-03-06 13:35:00,
2013-03-06 08:40:00,27.0,22.2,27.91,WNW,298,2.4,4.9,80,0.00,,,0.00,WSDL version 423,2013-03-06 13:40:00,
2013-03-06 08:45:00,27.1,22.4,27.91,WNW,293,2.3,4.9,80,0.00,,,0.00,WSDL version 423,2013-03-06 13:45:00,
2013-03-06 08:50:00,27.2,22.2,27.91,NW,305,3.9,8.7,79,0.00,,,0.00,WSDL version 423,2013-03-06 13:50:00,
2013-03-06 08:55:00,27.4,22.4,27.91,West,276,3.9,8.7,79,0.00,,,0.00,WSDL version 423,2013-03-06 13:55:00,
2013-03-06 09:00:00,27.5,22.2,27.91,WNW,303,2.7,7.4,78,0.00,,,0.00,WSDL version 423,2013-03-06 14:00:00,
2013-03-06 09:05:00,27.7,22.2,27.91,NNW,334,3.1,7.4,77,0.00,,,0.00,WSDL version 423,2013-03-06 14:05:00,
2013-03-06 09:10:00,27.8,22.0,27.91,West,270,3.5,6.5,76,0.00,,,0.00,WSDL version 423,2013-03-06 14:10:00,
2013-03-06 09:15:00,28.0,22.1,27.91,WNW,298,3.2,6.5,76,0.00,,,0.00,WSDL version 423,2013-03-06 14:15:00,
2013-03-06 09:20:00,28.2,22.2,27.91,NW,326,2.3,8.7,75,0.00,,,0.00,WSDL version 423,2013-03-06 14:20:00,
2013-03-06 09:25:00,28.3,21.9,27.91,NW,323,4.8,8.7,73,0.00,,,0.00,WSDL version 423,2013-03-06 14:25:00,
2013-03-06 09:30:00,28.6,21.9,27.91,SW,219,3.2,7.4,73,0.00,,,0.00,WSDL version 423,2013-03-06 14:30:00,
2013-03-06 09:35:00,28.6,21.6,27.91,West,280,4.0,7.4,72,0.00,,,0.00,WSDL version 423,2013-03-06 14:35:00,
2013-03-06 09:40:00,28.6,21.3,27.91,West,273,3.7,7.4,70,0.00,,,0.00,WSDL version 423,2013-03-06 14:40:00,
2013-03-06 09:45:00,28.6,20.9,27.91,NNW,335,3.5,6.7,69,0.00,,,0.00,WSDL version 423,2013-03-06 14:45:00,
2013-03-06 09:50:00,28.6,20.3,27.94,WNW,295,2.9,8.1,68,0.00,,,0.00,WSDL version 423,2013-03-06 14:50:00,
2013-03-06 09:55:00,28.7,19.9,27.94,NW,326,4.0,10.3,66,0.00,,,0.00,WSDL version 423,2013-03-06 14:55:00,
2013-03-06 10:00:00,28.8,19.5,27.94,West,264,5.3,10.3,64,0.00,,,0.00,WSDL version 423,2013-03-06 15:00:00,
2013-03-06 10:05:00,28.9,19.8,27.94,North,354,3.8,10.5,65,0.00,,,0.00,WSDL version 423,2013-03-06 15:05:00,
2013-03-06 10:15:00,29.1,18.8,27.94,North,355,5.0,10.5,60,0.00,,,0.00,WSDL version 423,2013-03-06 15:15:00,
2013-03-06 10:20:00,29.1,18.3,27.94,NW,315,2.6,10.5,60,0.00,,,0.00,WSDL version 423,2013-03-06 15:20:00,
2013-03-06 10:25:00,29.1,18.2,27.94,NNW,345,6.2,9.8,59,0.00,,,0.00,WSDL version 423,2013-03-06 15:25:00,
2013-03-06 10:30:00,29.0,17.9,27.94,NW,315,6.3,15.2,59,0.00,,,0.00,WSDL version 423,2013-03-06 15:30:00,
2013-03-06 10:35:00,29.1,18.3,27.94,North,350,4.5,15.2,60,0.00,,,0.00,WSDL version 423,2013-03-06 15:35:00,
2013-03-06 10:40:00,29.2,18.1,27.94,NW,315,4.7,12.3,60,0.00,,,0.00,WSDL version 423,2013-03-06 15:40:00,
2013-03-06 10:45:00,29.2,18.3,27.94,North,353,3.2,7.6,60,0.00,,,0.00,WSDL version 423,2013-03-06 15:45:00,
2013-03-06 10:50:00,29.3,18.6,27.94,NNW,346,3.9,9.4,61,0.00,,,0.00,WSDL version 423,2013-03-06 15:50:00,
2013-03-06 10:55:00,29.3,18.4,27.94,NW,315,5.1,11.2,59,0.00,,,0.00,WSDL version 423,2013-03-06 15:55:00,
2013-03-06 11:00:00,29.3,18.4,27.94,WNW,298,4.7,11.2,61,0.00,,,0.00,WSDL version 423,2013-03-06 16:00:00,
2013-03-06 11:05:00,29.3,18.4,27.96,NW,323,5.7,11.0,59,0.00,,,0.00,WSDL version 423,2013-03-06 16:05:00,
2013-03-06 11:10:00,29.3,18.6,27.96,NW,325,4.2,14.1,60,0.00,,,0.00,WSDL version 423,2013-03-06 16:10:00,
2013-03-06 11:15:00,29.4,18.6,27.96,NW,307,4.6,14.1,60,0.00,,,0.00,WSDL version 423,2013-03-06 16:15:00,
2013-03-06 11:20:00,29.5,18.7,27.96,NW,313,4.0,8.5,60,0.00,,,0.00,WSDL version 423,2013-03-06 16:20:00,
2013-03-06 11:30:00,29.5,18.8,27.96,WNW,290,3.4,12.3,61,0.00,,,0.00,WSDL version 423,2013-03-06 16:30:00,
2013-03-06 11:35:00,29.4,18.7,27.96,NW,308,6.2,12.3,60,0.00,,,0.00,WSDL version 423,2013-03-06 16:35:00,
2013-03-06 11:40:00,29.3,18.6,27.96,West,270,5.4,18.8,61,0.00,,,0.00,WSDL version 423,2013-03-06 16:40:00,
2013-03-06 11:45:00,29.5,19.1,27.96,WNW,300,3.0,18.8,62,0.00,,,0.00,WSDL version 423,2013-03-06 16:45:00,
2013-03-06 11:50:00,29.5,19.4,27.96,NW,325,3.5,7.6,62,0.00,,,0.00,WSDL version 423,2013-03-06 16:50:00,
2013-03-06 11:55:00,29.5,19.2,27.96,West,280,2.9,7.6,62,0.00,,,0.00,WSDL version 423,2013-03-06 16:55:00,
2013-03-06 12:00:00,29.5,19.3,27.96,North,352,5.9,13.2,62,0.00,,,0.00,WSDL version 423,2013-03-06 17:00:00,
2013-03-06 12:05:00,29.5,19.5,27.96,NNE,25,4.2,13.2,64,0.00,,,0.00,WSDL version 423,2013-03-06 17:05:00,
2013-03-06 12:10:00,29.5,19.7,27.96,NW,313,4.3,10.1,63,0.00,,,0.00,WSDL version 423,2013-03-06 17:10:00,
2013-03-06 12:15:00,29.5,19.6,27.96,NE,37,5.1,10.7,64,0.00,,,0.00,WSDL version 423,2013-03-06 17:15:00,
2013-03-06 12:20:00,29.4,19.6,27.96,NE,43,4.5,10.7,63,0.00,,,0.00,WSDL version 423,2013-03-06 17:20:00,
2013-03-06 12:25:00,29.3,19.8,27.96,NW,321,3.7,8.5,64,0.00,,,0.00,WSDL version 423,2013-03-06 17:25:00,
2013-03-06 12:30:00,29.3,20.1,27.96,WNW,283,5.2,14.3,65,0.00,,,0.00,WSDL version 423,2013-03-06 17:30:00,
2013-03-06 12:35:00,29.3,20.2,27.99,NNW,347,4.2,14.3,65,0.00,,,0.00,WSDL version 423,2013-03-06 17:35:00,
2013-03-06 12:40:00,29.3,20.1,27.99,North,353,3.0,6.3,65,0.00,,,0.00,WSDL version 423,2013-03-06 17:40:00,
2013-03-06 12:45:00,29.4,20.7,27.99,NW,323,4.0,7.4,65,0.00,,,0.00,WSDL version 423,2013-03-06 17:45:00,
2013-03-06 12:50:00,29.5,20.4,27.99,NNW,332,4.3,7.4,65,0.00,,,0.00,WSDL version 423,2013-03-06 17:50:00,
2013-03-06 12:55:00,29.5,20.4,27.99,ENE,68,6.0,8.5,65,0.00,,,0.00,WSDL version 423,2013-03-06 17:55:00,
2013-03-06 13:00:00,29.5,20.1,27.99,NW,326,4.3,8.5,65,0.00,,,0.00,WSDL version 423,2013-03-06 18:00:00,
2013-03-06 13:05:00,29.5,20.3,27.99,WNW,300,4.2,6.5,65,0.00,,,0.00,WSDL version 423,2013-03-06 18:05:00,
2013-03-06 13:10:00,29.5,20.4,27.99,NW,304,3.5,6.3,66,0.00,,,0.00,WSDL version 423,2013-03-06 18:10:00,
2013-03-06 13:15:00,29.6,20.7,27.99,SSW,208,3.8,9.4,66,0.00,,,0.00,WSDL version 423,2013-03-06 18:15:00,
2013-03-06 13:20:00,29.6,20.6,27.99,NNW,328,3.7,9.4,65,0.00,,,0.00,WSDL version 423,2013-03-06 18:20:00,
2013-03-06 13:25:00,29.8,20.4,27.99,WNW,287,3.8,8.7,64,0.00,,,0.00,WSDL version 423,2013-03-06 18:25:00,
2013-03-06 13:30:00,29.8,20.6,27.99,NW,323,3.7,8.7,65,0.00,,,0.00,WSDL version 423,2013-03-06 18:30:00,
2013-03-06 13:35:00,29.9,20.9,27.99,NNW,329,3.4,6.5,67,0.00,,,0.00,WSDL version 423,2013-03-06 18:35:00,
2013-03-06 13:40:00,29.8,20.5,27.99,WNW,300,6.8,10.1,64,0.00,,,0.00,WSDL version 423,2013-03-06 18:40:00,
2013-03-06 13:45:00,29.8,20.3,27.99,NW,307,4.4,10.1,64,0.00,,,0.00,WSDL version 423,2013-03-06 18:45:00,
2013-03-06 13:50:00,29.8,20.6,27.99,NW,318,4.3,8.1,64,0.00,,,0.00,WSDL version 423,2013-03-06 18:50:00,
2013-03-06 13:55:00,29.9,20.5,27.99,NNW,333,4.6,7.4,65,0.00,,,0.00,WSDL version 423,2013-03-06 18:55:00,
2013-03-06 14:00:00,29.8,20.6,27.99,NNW,338,3.9,6.5,65,0.00,,,0.00,WSDL version 423,2013-03-06 19:00:00,
2013-03-06 14:05:00,29.8,20.9,27.99,WNW,290,6.6,9.6,66,0.00,,,0.00,WSDL version 423,2013-03-06 19:05:00,
2013-03-06 14:10:00,30.0,21.3,27.99,WNW,287,3.2,9.6,68,0.00,,,0.00,WSDL version 423,2013-03-06 19:10:00,
2013-03-06 14:15:00,30.0,21.5,27.99,NW,308,5.0,9.8,67,0.00,,,0.00,WSDL version 423,2013-03-06 19:15:00,
2013-03-06 14:20:00,30.0,21.1,27.99,North,350,5.8,10.1,66,0.00,,,0.00,WSDL version 423,2013-03-06 19:20:00,
2013-03-06 14:25:00,30.1,21.4,27.99,NW,310,4.1,10.1,68,0.00,,,0.00,WSDL version 423,2013-03-06 19:25:00,
2013-03-06 14:30:00,30.2,21.7,27.99,NNW,348,4.9,6.7,67,0.00,,,0.00,WSDL version 423,2013-03-06 19:30:00,
2013-03-06 14:35:00,30.2,21.5,27.99,NNW,340,3.6,6.7,67,0.00,,,0.00,WSDL version 423,2013-03-06 19:35:00,
2013-03-06 14:40:00,30.2,21.8,27.99,South,183,3.4,6.9,68,0.00,,,0.00,WSDL version 423,2013-03-06 19:40:00,
2013-03-06 14:45:00,30.3,21.8,27.99,NW,304,4.9,7.2,67,0.00,,,0.00,WSDL version 423,2013-03-06 19:45:00,
2013-03-06 14:50:00,30.4,21.7,27.99,North,360,4.6,7.4,66,0.00,,,0.00,WSDL version 423,2013-03-06 19:50:00,
2013-03-06 14:55:00,30.4,21.6,27.99,WNW,290,4.5,8.1,66,0.00,,,0.00,WSDL version 423,2013-03-06 19:55:00,
2013-03-06 15:00:00,30.4,21.5,27.99,NW,309,2.3,8.1,66,0.00,,,0.00,WSDL version 423,2013-03-06 20:00:00,
2013-03-06 15:05:00,30.3,21.6,27.99,WNW,290,4.4,8.1,67,0.00,,,0.00,WSDL version 423,2013-03-06 20:05:00,
2013-03-06 15:10:00,30.4,21.9,27.99,NNW,343,3.5,8.1,67,0.00,,,0.00,WSDL version 423,2013-03-06 20:10:00,
2013-03-06 15:15:00,30.4,21.8,27.99,West,280,4.2,8.5,67,0.00,,,0.00,WSDL version 423,2013-03-06 20:15:00,
2013-03-06 15:20:00,30.4,22.0,28.02,NNW,343,5.5,8.5,68,0.00,,,0.00,WSDL version 423,2013-03-06 20:20:00,
2013-03-06 15:25:00,30.3,21.8,28.02,NW,323,3.7,7.6,68,0.00,,,0.00,WSDL version 423,2013-03-06 20:25:00,
2013-03-06 15:30:00,30.4,22.0,28.02,ENE,65,2.2,6.3,67,0.00,,,0.00,WSDL version 423,2013-03-06 20:30:00,
2013-03-06 15:35:00,30.4,22.2,28.02,West,264,3.1,5.4,68,0.00,,,0.00,WSDL version 423,2013-03-06 20:35:00,
2013-03-06 15:40:00,30.5,22.3,28.02,SW,215,4.1,10.7,68,0.00,,,0.00,WSDL version 423,2013-03-06 20:40:00,
2013-03-06 15:45:00,30.5,22.2,28.02,SSE,160,2.1,10.7,68,0.00,,,0.00,WSDL version 423,2013-03-06 20:45:00,
2013-03-06 15:50:00,30.5,22.2,28.02,SE,138,2.9,4.3,68,0.00,,,0.00,WSDL version 423,2013-03-06 20:50:00,
2013-03-06 15:55:00,30.4,22.1,28.02,SSW,208,2.6,4.9,68,0.00,,,0.00,WSDL version 423,2013-03-06 20:55:00,
2013-03-06 16:00:00,30.4,22.2,28.02,West,263,2.0,4.9,68,0.00,,,0.00,WSDL version 423,2013-03-06 21:00:00,
2013-03-06 16:10:00,30.3,22.1,28.02,WNW,295,3.7,7.8,68,0.00,,,0.00,WSDL version 423,2013-03-06 21:10:00,
2013-03-06 16:15:00,30.2,22.3,28.02,West,273,4.0,7.4,68,0.00,,,0.00,WSDL version 423,2013-03-06 21:15:00,
2013-03-06 16:20:00,30.4,22.3,28.02,North,357,2.0,7.4,69,0.00,,,0.00,WSDL version 423,2013-03-06 21:20:00,
2013-03-06 16:25:00,30.4,22.5,28.02,NW,305,4.7,6.9,69,0.00,,,0.00,WSDL version 423,2013-03-06 21:25:00,
2013-03-06 16:30:00,30.4,22.1,28.02,West,273,4.3,7.2,68,0.00,,,0.00,WSDL version 423,2013-03-06 21:30:00,
2013-03-06 16:35:00,30.4,22.1,28.02,NW,313,5.5,7.6,67,0.00,,,0.00,WSDL version 423,2013-03-06 21:35:00,
2013-03-06 16:40:00,30.6,22.3,28.02,South,186,2.1,7.6,68,0.00,,,0.00,WSDL version 423,2013-03-06 21:40:00,
2013-03-06 16:45:00,30.6,22.3,28.02,WNW,287,2.5,6.0,68,0.00,,,0.00,WSDL version 423,2013-03-06 21:45:00,
2013-03-06 16:50:00,30.6,22.5,28.02,WNW,295,5.6,8.1,69,0.00,,,0.00,WSDL version 423,2013-03-06 21:50:00,
2013-03-06 17:00:00,30.6,22.4,28.02,WNW,295,4.3,11.0,68,0.00,,,0.00,WSDL version 423,2013-03-06 22:00:00,
2013-03-06 17:05:00,30.7,22.2,28.05,WNW,301,3.9,7.6,68,0.00,,,0.00,WSDL version 423,2013-03-06 22:05:00,
2013-03-06 17:10:00,30.7,22.5,28.05,WNW,295,3.0,7.4,68,0.00,,,0.00,WSDL version 423,2013-03-06 22:10:00,
2013-03-06 17:15:00,30.7,22.5,28.05,NW,313,3.5,8.1,68,0.00,,,0.00,WSDL version 423,2013-03-06 22:15:00,
2013-03-06 17:20:00,30.7,22.6,28.05,WNW,298,2.7,8.1,69,0.00,,,0.00,WSDL version 423,2013-03-06 22:20:00,
2013-03-06 17:25:00,30.7,22.6,28.05,WNW,300,3.4,8.1,68,0.00,,,0.00,WSDL version 423,2013-03-06 22:25:00,
2013-03-06 17:30:00,30.9,22.9,28.05,WNW,290,2.9,8.1,69,0.00,,,0.00,WSDL version 423,2013-03-06 22:30:00,
2013-03-06 17:35:00,30.9,22.9,28.05,West,275,2.4,4.3,69,0.00,,,0.00,WSDL version 423,2013-03-06 22:35:00,
2013-03-06 17:40:00,30.9,23.0,28.05,WSW,250,2.5,4.3,69,0.00,,,0.00,WSDL version 423,2013-03-06 22:40:00,
2013-03-06 17:45:00,30.9,22.7,28.05,WNW,300,4.3,8.7,67,0.00,,,0.00,WSDL version 423,2013-03-06 22:45:00,
2013-03-06 17:50:00,30.9,22.7,28.05,East,93,2.7,8.7,68,0.00,,,0.00,WSDL version 423,2013-03-06 22:50:00,
2013-03-06 17:55:00,30.9,22.7,28.05,NW,320,3.0,6.5,68,0.00,,,0.00,WSDL version 423,2013-03-06 22:55:00,
2013-03-06 18:00:00,30.9,22.7,28.05,WNW,285,3.6,6.5,68,0.00,,,0.00,WSDL version 423,2013-03-06 23:00:00,
2013-03-06 18:05:00,30.7,22.5,28.05,NW,321,2.8,7.2,68,0.00,,,0.00,WSDL version 423,2013-03-06 23:05:00,
2013-03-06 18:10:00,30.7,22.4,28.05,WNW,288,3.3,7.2,67,0.00,,,0.00,WSDL version 423,2013-03-06 23:10:00,
2013-03-06 18:15:00,30.7,22.4,28.05,West,281,3.0,6.3,68,0.00,,,0.00,WSDL version 423,2013-03-06 23:15:00,
2013-03-06 18:20:00,30.7,22.5,28.05,WSW,258,2.7,5.6,68,0.00,,,0.00,WSDL version 423,2013-03-06 23:20:00,
2013-03-06 18:25:00,30.7,22.7,28.05,NW,310,2.6,4.3,69,0.00,,,0.00,WSDL version 423,2013-03-06 23:25:00,
2013-03-06 18:30:00,30.7,22.8,28.05,West,268,2.9,6.5,69,0.00,,,0.00,WSDL version 423,2013-03-06 23:30:00,
2013-03-06 18:35:00,30.7,22.8,28.05,ENE,78,2.8,6.5,69,0.00,,,0.00,WSDL version 423,2013-03-06 23:35:00,
2013-03-06 18:40:00,30.7,22.8,28.05,SE,138,2.9,5.8,69,0.00,,,0.00,WSDL version 423,2013-03-06 23:40:00,
2013-03-06 18:45:00,30.7,22.8,28.05,North,355,0.5,4.9,69,0.00,,,0.00,WSDL version 423,2013-03-06 23:45:00,
2013-03-06 18:50:00,30.7,22.8,28.05,West,259,2.5,4.9,69,0.00,,,0.00,WSDL version 423,2013-03-06 23:50:00,
2013-03-06 18:55:00,30.6,22.6,28.05,SE,133,1.9,4.9,69,0.00,,,0.00,WSDL version 423,2013-03-06 23:55:00,
2013-03-06 19:00:00,30.6,22.8,28.05,ENE,73,2.0,3.6,70,0.00,,,0.00,WSDL version 423,2013-03-07 00:00:00,
2013-03-06 19:05:00,30.6,22.9,28.08,West,264,3.5,5.6,70,0.00,,,0.00,WSDL version 423,2013-03-07 00:05:00,
2013-03-06 19:10:00,30.6,23.1,28.08,NNW,343,2.7,5.6,71,0.00,,,0.00,WSDL version 423,2013-03-07 00:10:00,
2013-03-06 19:15:00,30.6,23.2,28.08,ENE,76,2.6,4.3,71,0.00,,,0.00,WSDL version 423,2013-03-07 00:15:00,
2013-03-06 19:20:00,30.4,23.1,28.08,WNW,303,2.2,4.3,71,0.00,,,0.00,WSDL version 423,2013-03-07 00:20:00,
2013-03-06 19:25:00,30.4,23.2,28.08,NW,312,2.0,3.8,72,0.00,,,0.00,WSDL version 423,2013-03-07 00:25:00,
2013-03-06 19:30:00,30.4,23.2,28.08,WNW,295,3.1,4.9,71,0.00,,,0.00,WSDL version 423,2013-03-07 00:30:00,
2013-03-06 19:35:00,30.4,23.3,28.08,NW,323,3.2,6.3,71,0.00,,,0.00,WSDL version 423,2013-03-07 00:35:00,
2013-03-06 19:40:00,30.4,23.2,28.08,West,276,3.8,6.3,72,0.00,,,0.00,WSDL version 423,2013-03-07 00:40:00,
2013-03-06 19:45:00,30.4,23.3,28.08,WNW,295,3.1,5.8,72,0.00,,,0.00,WSDL version 423,2013-03-07 00:45:00,
2013-03-06 19:50:00,30.4,23.2,28.08,NE,34,2.6,5.8,71,0.00,,,0.00,WSDL version 423,2013-03-07 00:50:00,
2013-03-06 20:00:00,30.4,23.3,28.08,WSW,248,4.0,7.6,72,0.00,,,0.00,WSDL version 423,2013-03-07 01:00:00,
2013-03-06 20:05:00,30.4,23.3,28.08,North,355,2.7,7.6,72,0.00,,,0.00,WSDL version 423,2013-03-07 01:05:00,
2013-03-06 20:10:00,30.4,23.3,28.08,SW,233,2.8,5.6,72,0.00,,,0.00,WSDL version 423,2013-03-07 01:10:00,
2013-03-06 20:15:00,30.3,23.4,28.08,West,276,2.5,4.7,73,0.00,,,0.00,WSDL version 423,2013-03-07 01:15:00,
2013-03-06 20:20:00,30.2,23.3,28.08,WNW,300,2.5,4.7,72,0.00,,,0.00,WSDL version 423,2013-03-07 01:20:00,
2013-03-06 20:25:00,30.2,23.2,28.08,West,278,1.3,5.8,72,0.00,,,0.00,WSDL version 423,2013-03-07 01:25:00,
2013-03-06 20:30:00,30.2,23.5,28.08,NW,308,3.4,6.5,74,0.00,,,0.00,WSDL version 423,2013-03-07 01:30:00,
2013-03-06 20:35:00,30.2,23.6,28.08,North,8,2.3,8.1,74,0.00,,,0.00,WSDL version 423,2013-03-07 01:35:00,
2013-03-06 20:40:00,30.2,23.5,28.08,NE,55,2.0,8.1,73,0.00,,,0.00,WSDL version 423,2013-03-07 01:40:00,
2013-03-06 20:45:00,30.2,23.5,28.08,NW,325,2.2,5.8,73,0.00,,,0.00,WSDL version 423,2013-03-07 01:45:00,
2013-03-06 20:50:00,30.2,23.7,28.08,WSW,254,1.7,5.6,74,0.00,,,0.00,WSDL version 423,2013-03-07 01:50:00,
2013-03-06 20:55:00,30.2,23.7,28.08,North,358,2.1,5.6,74,0.00,,,0.00,WSDL version 423,2013-03-07 01:55:00,
2013-03-06 21:00:00,30.2,23.8,28.08,West,270,1.8,3.4,74,0.00,,,0.00,WSDL version 423,2013-03-07 02:00:00,
2013-03-06 21:05:00,30.2,23.8,28.08,NW,323,1.3,3.6,74,0.00,,,0.00,WSDL version 423,2013-03-07 02:05:00,
2013-03-06 21:10:00,30.2,23.8,28.08,North,357,1.9,4.9,74,0.00,,,0.00,WSDL version 423,2013-03-07 02:10:00,
2013-03-06 21:15:00,30.2,23.8,28.08,SW,218,1.6,7.4,74,0.00,,,0.00,WSDL version 423,2013-03-07 02:15:00,
2013-03-06 21:25:00,30.1,23.8,28.08,NE,42,1.9,4.9,74,0.00,,,0.00,WSDL version 423,2013-03-07 02:25:00,
2013-03-06 21:30:00,30.0,23.6,28.08,NNW,330,2.1,4.9,74,0.00,,,0.00,WSDL version 423,2013-03-07 02:30:00,
2013-03-06 21:40:00,30.0,23.6,28.08,WNW,283,2.6,7.8,74,0.00,,,0.00,WSDL version 423,2013-03-07 02:40:00,
2013-03-06 21:45:00,30.0,23.6,28.08,East,96,1.9,6.5,74,0.00,,,0.00,WSDL version 423,2013-03-07 02:45:00,
2013-03-06 21:50:00,30.0,23.6,28.08,NW,321,2.8,4.3,74,0.00,,,0.00,WSDL version 423,2013-03-07 02:50:00,
2013-03-06 21:55:00,30.0,23.7,28.08,North,354,3.0,6.0,75,0.00,,,0.00,WSDL version 423,2013-03-07 02:55:00,
2013-03-06 22:00:00,29.9,23.5,28.08,West,281,2.7,6.0,74,0.00,,,0.00,WSDL version 423,2013-03-07 03:00:00,
2013-03-06 22:05:00,29.8,23.4,28.08,North,358,1.5,5.6,74,0.00,,,0.00,WSDL version 423,2013-03-07 03:05:00,
2013-03-06 22:10:00,29.8,23.5,28.08,NNW,338,1.8,4.7,74,0.00,,,0.00,WSDL version 423,2013-03-07 03:10:00,
2013-03-06 22:15:00,29.8,23.4,28.08,WSW,239,1.8,5.4,74,0.00,,,0.00,WSDL version 423,2013-03-07 03:15:00,
2013-03-06 22:20:00,29.8,23.4,28.08,NNW,329,2.1,5.4,74,0.00,,,0.00,WSDL version 423,2013-03-07 03:20:00,
2013-03-06 22:25:00,29.8,23.4,28.08,NW,323,1.3,3.1,74,0.00,,,0.00,WSDL version 423,2013-03-07 03:25:00,
2013-03-06 22:35:00,29.8,23.7,28.08,WNW,293,2.3,3.4,75,0.00,,,0.00,WSDL version 423,2013-03-07 03:35:00,
2013-03-06 22:40:00,29.8,23.6,28.08,NW,307,3.2,5.6,74,0.00,,,0.00,WSDL version 423,2013-03-07 03:40:00,
2013-03-06 22:45:00,29.7,23.5,28.08,North,352,3.6,6.3,75,0.00,,,0.00,WSDL version 423,2013-03-07 03:45:00,
2013-03-06 22:55:00,29.7,23.5,28.11,NW,312,2.0,4.9,75,0.00,,,0.00,WSDL version 423,2013-03-07 03:55:00,
2013-03-06 23:00:00,29.7,23.5,28.11,North,350,1.6,4.9,75,0.00,,,0.00,WSDL version 423,2013-03-07 04:00:00,
2013-03-06 23:05:00,29.7,23.5,28.11,NW,304,2.3,4.3,75,0.00,,,0.00,WSDL version 423,2013-03-07 04:05:00,
2013-03-06 23:10:00,29.7,23.6,28.11,NW,304,3.1,4.3,75,0.00,,,0.00,WSDL version 423,2013-03-07 04:10:00,
2013-03-06 23:15:00,29.7,23.8,28.11,NNW,345,1.9,4.3,76,0.00,,,0.00,WSDL version 423,2013-03-07 04:15:00,
2013-03-06 23:20:00,29.5,23.7,28.08,West,281,2.7,3.6,76,0.00,,,0.00,WSDL version 423,2013-03-07 04:20:00,
2013-03-06 23:25:00,29.5,23.6,28.08,NNW,330,1.6,3.6,76,0.00,,,0.00,WSDL version 423,2013-03-07 04:25:00,
2013-03-06 23:30:00,29.5,23.7,28.08,WNW,289,1.7,3.1,77,0.00,,,0.00,WSDL version 423,2013-03-07 04:30:00,
2013-03-06 23:35:00,29.5,23.9,28.08,NW,313,1.7,4.0,77,0.00,,,0.00,WSDL version 423,2013-03-07 04:35:00,
2013-03-06 23:40:00,29.5,23.9,28.08,East,83,1.2,4.0,77,0.00,,,0.00,WSDL version 423,2013-03-07 04:40:00,
2013-03-06 23:45:00,29.5,23.9,28.08,WNW,287,1.8,3.8,77,0.00,,,0.00,WSDL version 423,2013-03-07 04:45:00,
2013-03-06 23:50:00,29.5,23.9,28.08,NNW,328,2.1,3.8,77,0.00,,,0.00,WSDL version 423,2013-03-07 04:50:00,
2013-03-06 23:55:00,29.5,24.0,28.08,West,280,2.6,3.6,78,0.00,,,0.00,WSDL version 423,2013-03-07 04:55:00,